Terminal Aerodrome Forecast
Issued by NWS

Home | Current Version | Previous Version | Graphics & Text | Print | Product List | Glossary Off
Versions: 1 2 3 4 5 6 7 8 9 10 11 12 13 14 15

000
FTUS43 KLSX 130528
TAFSUS
TAF
KSUS 130528Z 1306/1406 21005KT P6SM SKC
     FM131100 20008KT P6SM FEW250 WS020/23035KT
     FM131500 22013G25KT P6SM FEW250 WS020/23045KT
     FM131600 24015G31KT P6SM SCT250
     FM132000 28015G26KT P6SM SCT250
     FM140400 32011G20KT P6SM BKN045=

USA.gov is the U.S. government's official web portal to all federal, state and local government web resources and services.